KMHR/MHR METAR and TAF weather

Enter ICAO airport designator
Station Type Date Time Source
KMHR METAR 2021/07/27 21:49 UTC NOAA

KMHR 272149Z 32011G17KT FEW150 34/06 A2994


Station Type Date Time Source
KMHR Decoded METAR 2021/07/27 21:49 UTC NOAA

Sacramento, Sacramento Mather Airport, CA, United States (KMHR) 38-33N 121-18W
Jul 27, 2021 - 05:49 PM EDT / 2021.07.27 2149 UTC
Wind: from the NW (320 degrees) at 13 MPH (11 KT) gusting to 20 MPH (17 KT):0
Sky conditions: mostly clear
Temperature: 93 F (34 C)
Dew Point: 42 F (6 C)
Relative Humidity: 17%
Pressure (altimeter): 29.94 in. Hg (1013 hPa)
ob: KMHR 272149Z 32011G17KT FEW150 34/06 A2994
cycle: 22

Station Type Date Time Source
KMHR TAF 2021/07/27 18:27 UTC NOAA

TAF KMHR 271725Z 2718/2818 30006KT P6SM BKN150
FM272100 31004KT P6SM SKC
FM280300 23005KT P6SM SKC

Example: see airport list